Strona główna
METAR-TAF:

METAR-TAF

Lotnisko :

Sitiawan, Malezja

Szerokość geograficzna: 04-13N, Długość geograficzna: 100-42E, wysokość: 7 m

Aktualna obserwacja pogody

Raport powstał 15 minut temu, godzina 06:00 UTC
Wiatr 3 kt z kierunków zmiennych
Temperatura 34°C
Wilgotność 60%
Ciśnienie 1008 hPa
Widzialność 10 km lub więcej
Mało chmury na wysokości 1700 ft, Cumulonimbus.

METAR: WMBA 280600Z VRB03KT 9999 FEW017CB 34/25 Q1008

czas: 14:15 (06:15 UTC)


TAF: brakujący

Obserwacja i prognoza pogody dla ponad 4000 lotnisk (raport METAR i TAF).

Dostępne stacje oznaczono żółtymi i czerwonymi punktami na mapie.

Najedź kursorem aby zobaczyć nazwę stacji.

Kliknij aby zobaczyć obserwacje i prognozy pogody.

Aby zmienić mapę: kliknij na zielony przycisk z czarnym krzyżykiem, aby powiększyć; na zielony przycisk z myślnikiem, aby pomniejszyć; na zielone strzałki, aby przejść do map sąsiednich.


METAR-TAF: